Time,TemperatureF,DewpointF,PressureIn,WindDirection,WindDirectionDegrees,WindSpeedMPH,WindSpeedGustMPH,Humidity,HourlyPrecipIn,Conditions,Clouds,dailyrainin,SoftwareType,DateUTC
2013-11-28 00:00:00,18.6,15.4,30.33,NW,304,0.0,0.0,87,0.00,,BKN055,0.00,VWS V14.00,2013-11-28 05:00:00,
2013-11-28 00:01:00,18.6,15.4,30.33,NW,304,0.0,0.0,87,0.00,,BKN055,0.00,VWS V14.00,2013-11-28 05:01:00,
2013-11-28 00:10:00,18.2,15.2,30.33,NW,304,0.0,0.0,88,0.00,,BKN055,0.00,VWS V14.00,2013-11-28 05:10:00,
2013-11-28 00:11:00,18.2,15.2,30.33,NW,304,0.0,0.0,88,0.00,,BKN055,0.00,VWS V14.00,2013-11-28 05:11:00,
2013-11-28 00:20:00,17.9,15.2,30.33,NW,304,0.0,0.0,89,0.00,,BKN055,0.00,VWS V14.00,2013-11-28 05:20:00,
2013-11-28 00:21:00,17.9,15.2,30.33,NW,304,0.0,0.0,89,0.00,,BKN055,0.00,VWS V14.00,2013-11-28 05:21:00,
2013-11-28 00:30:00,17.5,15.1,30.33,NW,304,0.0,0.0,90,0.00,,BKN055,0.00,VWS V14.00,2013-11-28 05:30:00,
2013-11-28 00:31:00,17.5,15.1,30.33,NW,304,0.0,0.0,90,0.00,,BKN055,0.00,VWS V14.00,2013-11-28 05:31:00,
2013-11-28 00:40:00,17.3,14.9,30.34,NW,304,0.0,0.0,90,0.00,,BKN055,0.00,VWS V14.00,2013-11-28 05:40:00,
2013-11-28 00:41:00,17.3,14.9,30.34,NW,304,0.0,0.0,90,0.00,,BKN055,0.00,VWS V14.00,2013-11-28 05:41:00,
2013-11-28 00:50:00,17.1,14.9,30.34,NW,304,0.0,0.0,91,0.00,,BKN055,0.00,VWS V14.00,2013-11-28 05:50:00,
2013-11-28 00:51:00,17.1,14.9,30.34,NW,304,0.0,0.0,91,0.00,,BKN055,0.00,VWS V14.00,2013-11-28 05:51:00,
2013-11-28 01:00:00,16.7,14.3,30.33,NW,307,0.0,2.0,90,0.00,,BKN055,0.00,VWS V14.00,2013-11-28 06:00:00,
2013-11-28 01:01:00,16.7,14.3,30.33,NW,307,0.0,2.0,90,0.00,,BKN055,0.00,VWS V14.00,2013-11-28 06:01:00,
2013-11-28 01:10:00,16.5,14.3,30.33,NW,309,0.0,0.0,91,0.00,,BKN055,0.00,VWS V14.00,2013-11-28 06:10:00,
2013-11-28 01:11:00,16.5,14.3,30.33,NW,309,0.0,0.0,91,0.00,,BKN055,0.00,VWS V14.00,2013-11-28 06:11:00,
2013-11-28 01:20:00,16.4,14.2,30.33,NW,309,0.0,1.0,91,0.00,,BKN055,0.00,VWS V14.00,2013-11-28 06:20:00,
2013-11-28 01:21:00,16.4,14.2,30.33,NW,309,0.0,1.0,91,0.00,,BKN055,0.00,VWS V14.00,2013-11-28 06:21:00,
2013-11-28 01:30:00,16.4,14.5,30.34,NW,309,0.0,0.0,92,0.00,,BKN055,0.00,VWS V14.00,2013-11-28 06:30:00,
2013-11-28 01:31:00,16.4,14.5,30.34,NW,309,0.0,0.0,92,0.00,,BKN055,0.00,VWS V14.00,2013-11-28 06:31:00,
2013-11-28 01:40:00,16.5,14.6,30.34,NNW,333,1.0,3.0,92,0.00,,BKN055,0.00,VWS V14.00,2013-11-28 06:40:00,
2013-11-28 01:41:00,16.5,14.6,30.34,NNW,333,1.0,3.0,92,0.00,,BKN055,0.00,VWS V14.00,2013-11-28 06:41:00,
2013-11-28 01:50:00,16.5,14.3,30.35,NNW,336,0.0,3.0,91,0.00,,BKN055,0.00,VWS V14.00,2013-11-28 06:50:00,
2013-11-28 01:51:00,16.5,14.3,30.35,NNW,336,0.0,3.0,91,0.00,,BKN055,0.00,VWS V14.00,2013-11-28 06:51:00,
2013-11-28 02:00:00,16.3,14.1,30.35,NNW,336,0.0,0.0,91,0.00,,BKN055,0.00,VWS V14.00,2013-11-28 07:00:00,
2013-11-28 02:01:00,16.3,14.1,30.35,NNW,336,0.0,0.0,91,0.00,,BKN055,0.00,VWS V14.00,2013-11-28 07:01:00,
2013-11-28 02:10:00,16.1,13.9,30.35,NNW,336,0.0,0.0,91,0.00,,BKN055,0.00,VWS V14.00,2013-11-28 07:10:00,
2013-11-28 02:11:00,16.1,13.9,30.35,NNW,336,0.0,0.0,91,0.00,,BKN055,0.00,VWS V14.00,2013-11-28 07:11:00,
2013-11-28 02:20:00,16.1,14.2,30.36,NNW,336,0.0,0.0,92,0.00,,BKN055,0.00,VWS V14.00,2013-11-28 07:20:00,
2013-11-28 02:21:00,16.1,14.2,30.36,NNW,336,0.0,0.0,92,0.00,,BKN055,0.00,VWS V14.00,2013-11-28 07:21:00,
2013-11-28 02:30:00,15.9,13.7,30.34,NNW,342,0.0,0.0,91,0.00,,BKN055,0.00,VWS V14.00,2013-11-28 07:30:00,
2013-11-28 02:31:00,15.9,13.7,30.34,NNW,342,0.0,0.0,91,0.00,,BKN055,0.00,VWS V14.00,2013-11-28 07:31:00,
2013-11-28 02:40:00,15.7,13.8,30.36,NW,313,0.0,3.0,92,0.00,,BKN055,0.00,VWS V14.00,2013-11-28 07:40:00,
2013-11-28 02:41:00,15.7,13.8,30.36,NW,313,0.0,3.0,92,0.00,,BKN055,0.00,VWS V14.00,2013-11-28 07:41:00,
2013-11-28 02:50:00,15.6,13.7,30.36,NNW,332,3.0,3.0,92,0.00,,BKN055,0.00,VWS V14.00,2013-11-28 07:50:00,
2013-11-28 02:51:00,15.6,13.7,30.36,NNW,332,3.0,3.0,92,0.00,,BKN055,0.00,VWS V14.00,2013-11-28 07:51:00,
2013-11-28 03:00:00,15.5,13.6,30.35,NNW,331,0.0,3.0,92,0.00,,BKN055,0.00,VWS V14.00,2013-11-28 08:00:00,
2013-11-28 03:01:00,15.5,13.6,30.35,NNW,331,0.0,3.0,92,0.00,,BKN055,0.00,VWS V14.00,2013-11-28 08:01:00,
2013-11-28 03:10:00,15.4,13.5,30.36,NNW,333,2.0,3.0,92,0.00,,BKN055,0.00,VWS V14.00,2013-11-28 08:10:00,
2013-11-28 03:11:00,15.4,13.5,30.36,NNW,333,2.0,3.0,92,0.00,,BKN055,0.00,VWS V14.00,2013-11-28 08:11:00,
2013-11-28 03:20:00,15.5,13.6,30.36,NNW,327,1.0,3.0,92,0.00,,BKN055,0.00,VWS V14.00,2013-11-28 08:20:00,
2013-11-28 03:21:00,15.5,13.6,30.36,NNW,327,1.0,3.0,92,0.00,,BKN055,0.00,VWS V14.00,2013-11-28 08:21:00,
2013-11-28 03:30:00,15.4,13.5,30.36,NNW,338,1.0,3.0,92,0.00,,BKN055,0.00,VWS V14.00,2013-11-28 08:30:00,
2013-11-28 03:31:00,15.4,13.5,30.36,NNW,338,1.0,3.0,92,0.00,,BKN055,0.00,VWS V14.00,2013-11-28 08:31:00,
2013-11-28 03:40:00,15.4,13.5,30.36,NNW,338,0.0,2.0,92,0.00,,BKN055,0.00,VWS V14.00,2013-11-28 08:40:00,
2013-11-28 03:41:00,15.4,13.5,30.36,NNW,338,0.0,2.0,92,0.00,,BKN055,0.00,VWS V14.00,2013-11-28 08:41:00,
2013-11-28 03:50:00,15.3,13.4,30.36,NNW,337,0.0,2.0,92,0.00,,BKN055,0.00,VWS V14.00,2013-11-28 08:50:00,
2013-11-28 03:51:00,15.3,13.4,30.36,NNW,337,0.0,2.0,92,0.00,,BKN055,0.00,VWS V14.00,2013-11-28 08:51:00,
2013-11-28 04:00:00,15.2,13.3,30.36,NNW,339,0.0,2.0,92,0.00,,BKN055,0.00,VWS V14.00,2013-11-28 09:00:00,
2013-11-28 04:01:00,15.2,13.3,30.36,NNW,339,0.0,2.0,92,0.00,,BKN055,0.00,VWS V14.00,2013-11-28 09:01:00,
2013-11-28 04:10:00,15.1,13.2,30.36,NNW,341,1.0,3.0,92,0.00,,BKN055,0.00,VWS V14.00,2013-11-28 09:10:00,
2013-11-28 04:11:00,15.1,13.2,30.36,NNW,341,1.0,3.0,92,0.00,,BKN055,0.00,VWS V14.00,2013-11-28 09:11:00,
2013-11-28 04:20:00,15.0,13.1,30.37,NNW,341,0.0,3.0,92,0.00,,BKN055,0.00,VWS V14.00,2013-11-28 09:20:00,
2013-11-28 04:21:00,15.0,13.1,30.37,NNW,341,0.0,3.0,92,0.00,,BKN055,0.00,VWS V14.00,2013-11-28 09:21:00,
2013-11-28 04:30:00,15.0,13.1,30.37,NNW,341,0.0,0.0,92,0.00,,BKN055,0.00,VWS V14.00,2013-11-28 09:30:00,
2013-11-28 04:31:00,15.0,13.1,30.37,NNW,341,0.0,0.0,92,0.00,,BKN055,0.00,VWS V14.00,2013-11-28 09:31:00,
2013-11-28 04:40:00,14.8,12.9,30.38,NNW,341,0.0,0.0,92,0.00,,BKN055,0.00,VWS V14.00,2013-11-28 09:40:00,
2013-11-28 04:41:00,14.8,12.9,30.38,NNW,341,0.0,0.0,92,0.00,,BKN055,0.00,VWS V14.00,2013-11-28 09:41:00,
2013-11-28 04:50:00,14.6,12.7,30.38,NNW,341,0.0,0.0,92,0.00,,BKN055,0.00,VWS V14.00,2013-11-28 09:50:00,
2013-11-28 04:51:00,14.6,12.7,30.38,NNW,341,0.0,0.0,92,0.00,,BKN055,0.00,VWS V14.00,2013-11-28 09:51:00,
2013-11-28 05:00:00,14.5,12.6,30.37,NNW,341,0.0,0.0,92,0.00,,BKN055,0.00,VWS V14.00,2013-11-28 10:00:00,
2013-11-28 05:01:00,14.5,12.6,30.37,NNW,341,0.0,0.0,92,0.00,,BKN055,0.00,VWS V14.00,2013-11-28 10:01:00,
2013-11-28 05:10:00,14.7,13.1,30.38,NNW,341,0.0,0.0,93,0.00,,BKN055,0.00,VWS V14.00,2013-11-28 10:10:00,
2013-11-28 05:11:00,14.7,13.1,30.38,NNW,341,0.0,0.0,93,0.00,,BKN055,0.00,VWS V14.00,2013-11-28 10:11:00,
2013-11-28 05:20:00,15.0,13.4,30.39,NNW,341,0.0,0.0,93,0.00,,BKN055,0.00,VWS V14.00,2013-11-28 10:20:00,
2013-11-28 05:21:00,15.0,13.3,30.39,NNW,341,0.0,0.0,93,0.00,,BKN055,0.00,VWS V14.00,2013-11-28 10:21:00,
2013-11-28 05:30:00,15.3,13.6,30.38,NNW,341,0.0,0.0,93,0.00,,BKN055,0.00,VWS V14.00,2013-11-28 10:30:00,
2013-11-28 05:31:00,15.3,13.6,30.38,NNW,341,0.0,0.0,93,0.00,,BKN055,0.00,VWS V14.00,2013-11-28 10:31:00,
2013-11-28 05:40:00,15.7,14.0,30.39,NNW,341,0.0,0.0,93,0.00,,BKN055,0.00,VWS V14.00,2013-11-28 10:40:00,
2013-11-28 05:41:00,15.7,14.0,30.39,NNW,341,0.0,0.0,93,0.00,,BKN055,0.00,VWS V14.00,2013-11-28 10:41:00,
2013-11-28 05:50:00,16.0,14.3,30.40,NNW,341,0.0,0.0,93,0.00,,BKN055,0.00,VWS V14.00,2013-11-28 10:50:00,
2013-11-28 05:51:00,16.0,14.3,30.40,NNW,341,0.0,0.0,93,0.00,,BKN055,0.00,VWS V14.00,2013-11-28 10:51:00,
2013-11-28 06:00:00,16.3,14.6,30.40,NNW,341,1.0,3.0,93,0.00,,BKN055,0.00,VWS V14.00,2013-11-28 11:00:00,
2013-11-28 06:01:00,16.3,14.6,30.40,NNW,341,1.0,3.0,93,0.00,,BKN055,0.00,VWS V14.00,2013-11-28 11:01:00,
2013-11-28 06:10:00,16.5,14.8,30.40,NNW,341,2.0,3.0,93,0.00,,BKN055,0.00,VWS V14.00,2013-11-28 11:10:00,
2013-11-28 06:11:00,16.5,14.8,30.40,NNW,341,2.0,3.0,93,0.00,,BKN055,0.00,VWS V14.00,2013-11-28 11:11:00,
2013-11-28 06:20:00,16.7,15.0,30.41,NNW,333,0.0,3.0,93,0.00,,BKN055,0.00,VWS V14.00,2013-11-28 11:20:00,
2013-11-28 06:21:00,16.7,15.0,30.41,NNW,333,0.0,3.0,93,0.00,,BKN055,0.00,VWS V14.00,2013-11-28 11:21:00,
2013-11-28 06:30:00,16.8,14.9,30.40,NNW,333,0.0,0.0,92,0.00,,BKN055,0.00,VWS V14.00,2013-11-28 11:30:00,
2013-11-28 06:31:00,16.8,14.9,30.40,NNW,333,0.0,0.0,92,0.00,,BKN055,0.00,VWS V14.00,2013-11-28 11:31:00,
2013-11-28 06:40:00,17.1,15.4,30.40,NNW,333,0.0,0.0,93,0.00,,BKN055,0.00,VWS V14.00,2013-11-28 11:40:00,
2013-11-28 06:41:00,17.1,15.4,30.40,NNW,333,0.0,0.0,93,0.00,,BKN055,0.00,VWS V14.00,2013-11-28 11:41:00,
2013-11-28 06:50:00,17.3,15.6,30.41,NNW,333,0.0,0.0,93,0.00,,BKN055,0.00,VWS V14.00,2013-11-28 11:50:00,
2013-11-28 06:51:00,17.3,15.6,30.41,NNW,333,0.0,0.0,93,0.00,,BKN055,0.00,VWS V14.00,2013-11-28 11:51:00,
2013-11-28 07:00:00,17.8,16.1,30.42,NNW,331,2.0,2.0,93,0.00,,BKN055,0.00,VWS V14.00,2013-11-28 12:00:00,
2013-11-28 07:01:00,17.8,16.1,30.42,NNW,331,2.0,2.0,93,0.00,,BKN055,0.00,VWS V14.00,2013-11-28 12:01:00,
2013-11-28 07:10:00,18.5,16.6,30.42,West,281,1.0,3.0,92,0.00,,BKN055,0.00,VWS V14.00,2013-11-28 12:10:00,
2013-11-28 07:11:00,18.5,16.6,30.42,West,281,1.0,3.0,92,0.00,,BKN055,0.00,VWS V14.00,2013-11-28 12:11:00,
2013-11-28 07:20:00,18.8,16.6,30.43,West,261,0.0,4.0,91,0.00,,BKN055,0.00,VWS V14.00,2013-11-28 12:20:00,
2013-11-28 07:21:00,18.8,16.6,30.43,West,261,0.0,4.0,91,0.00,,BKN055,0.00,VWS V14.00,2013-11-28 12:21:00,
2013-11-28 07:30:00,18.6,16.2,30.43,West,275,0.0,0.0,90,0.00,,BKN055,0.00,VWS V14.00,2013-11-28 12:30:00,
2013-11-28 07:31:00,18.6,16.2,30.43,West,275,0.0,0.0,90,0.00,,BKN055,0.00,VWS V14.00,2013-11-28 12:31:00,
2013-11-28 07:40:00,18.8,16.6,30.43,West,275,0.0,0.0,91,0.00,,BKN055,0.00,VWS V14.00,2013-11-28 12:40:00,
2013-11-28 07:41:00,18.8,16.6,30.43,West,275,0.0,0.0,91,0.00,,BKN055,0.00,VWS V14.00,2013-11-28 12:41:00,
2013-11-28 07:50:00,19.0,16.8,30.43,West,275,0.0,0.0,91,0.00,,BKN055,0.00,VWS V14.00,2013-11-28 12:50:00,
2013-11-28 07:51:00,19.0,16.8,30.43,West,275,0.0,0.0,91,0.00,,BKN055,0.00,VWS V14.00,2013-11-28 12:51:00,
2013-11-28 08:00:00,19.8,17.6,30.43,West,275,1.0,2.0,91,0.00,,BKN055,0.00,VWS V14.00,2013-11-28 13:00:00,
2013-11-28 08:01:00,19.8,17.6,30.43,West,275,1.0,2.0,91,0.00,,BKN055,0.00,VWS V14.00,2013-11-28 13:01:00,
2013-11-28 08:10:00,20.9,18.4,30.43,West,275,0.0,2.0,90,0.00,,BKN055,0.00,VWS V14.00,2013-11-28 13:10:00,
2013-11-28 08:11:00,20.9,18.4,30.43,West,275,0.0,2.0,90,0.00,,BKN055,0.00,VWS V14.00,2013-11-28 13:11:00,
2013-11-28 08:20:00,21.5,18.5,30.43,WSW,246,0.0,3.0,88,0.00,,BKN055,0.00,VWS V14.00,2013-11-28 13:20:00,
2013-11-28 08:21:00,21.5,18.5,30.43,WSW,246,0.0,3.0,88,0.00,,BKN055,0.00,VWS V14.00,2013-11-28 13:21:00,
2013-11-28 08:30:00,22.0,19.0,30.44,WSW,246,0.0,2.0,88,0.00,,BKN055,0.00,VWS V14.00,2013-11-28 13:30:00,
2013-11-28 08:31:00,22.0,19.0,30.44,WSW,246,0.0,2.0,88,0.00,,BKN055,0.00,VWS V14.00,2013-11-28 13:31:00,
2013-11-28 08:40:00,22.3,18.8,30.44,SW,219,0.0,4.0,86,0.00,,BKN055,0.00,VWS V14.00,2013-11-28 13:40:00,
2013-11-28 08:41:00,22.3,18.8,30.44,SW,219,0.0,4.0,86,0.00,,BKN055,0.00,VWS V14.00,2013-11-28 13:41:00,
2013-11-28 08:50:00,22.7,19.1,30.44,WSW,237,0.0,3.0,86,0.00,,BKN055,0.00,VWS V14.00,2013-11-28 13:50:00,
2013-11-28 08:51:00,22.7,19.1,30.44,WSW,237,0.0,3.0,86,0.00,,BKN055,0.00,VWS V14.00,2013-11-28 13:51:00,
2013-11-28 09:00:00,23.1,18.7,30.43,SSW,198,1.0,3.0,83,0.00,,BKN055,0.00,VWS V14.00,2013-11-28 14:00:00,
2013-11-28 09:01:00,23.1,18.7,30.43,SSW,198,1.0,3.0,83,0.00,,BKN055,0.00,VWS V14.00,2013-11-28 14:01:00,
2013-11-28 09:10:00,23.4,19.0,30.44,South,188,0.0,3.0,83,0.00,,BKN055,0.00,VWS V14.00,2013-11-28 14:10:00,
2013-11-28 09:11:00,23.4,19.0,30.44,South,188,0.0,3.0,83,0.00,,BKN055,0.00,VWS V14.00,2013-11-28 14:11:00,
2013-11-28 09:20:00,23.8,18.8,30.43,SW,235,0.0,6.0,81,0.00,,BKN055,0.00,VWS V14.00,2013-11-28 14:20:00,
2013-11-28 09:21:00,23.8,18.8,30.43,SW,235,0.0,6.0,81,0.00,,BKN055,0.00,VWS V14.00,2013-11-28 14:21:00,
2013-11-28 09:30:00,25.1,20.7,30.43,SSW,196,0.0,1.0,83,0.00,,BKN055,0.00,VWS V14.00,2013-11-28 14:30:00,
2013-11-28 09:31:00,25.1,20.7,30.43,SSW,196,0.0,1.0,83,0.00,,BKN055,0.00,VWS V14.00,2013-11-28 14:31:00,
2013-11-28 09:40:00,25.8,20.2,30.43,SW,236,3.0,5.0,79,0.00,,BKN055,0.00,VWS V14.00,2013-11-28 14:40:00,
2013-11-28 09:41:00,25.8,20.2,30.43,SW,236,3.0,5.0,79,0.00,,BKN055,0.00,VWS V14.00,2013-11-28 14:41:00,
2013-11-28 09:50:00,26.4,19.9,30.44,SSW,194,1.0,7.0,76,0.00,,BKN055,0.00,VWS V14.00,2013-11-28 14:50:00,
2013-11-28 09:51:00,26.4,19.9,30.44,SSW,194,1.0,7.0,76,0.00,,BKN055,0.00,VWS V14.00,2013-11-28 14:51:00,
2013-11-28 10:00:00,26.9,19.4,30.44,WSW,240,5.0,7.0,73,0.00,,BKN055,0.00,VWS V14.00,2013-11-28 15:00:00,
2013-11-28 10:01:00,26.9,19.4,30.44,WSW,240,5.0,7.0,73,0.00,,BKN055,0.00,VWS V14.00,2013-11-28 15:01:00,
2013-11-28 10:10:00,27.0,19.2,30.44,WSW,244,4.0,7.0,72,0.00,,BKN055,0.00,VWS V14.00,2013-11-28 15:10:00,
2013-11-28 10:11:00,27.0,19.2,30.44,WSW,244,4.0,7.0,72,0.00,,BKN055,0.00,VWS V14.00,2013-11-28 15:11:00,
2013-11-28 10:20:00,27.6,20.4,30.44,SW,230,3.0,7.0,74,0.00,,BKN055,0.00,VWS V14.00,2013-11-28 15:20:00,
2013-11-28 10:21:00,27.6,20.4,30.44,SW,230,3.0,7.0,74,0.00,,BKN055,0.00,VWS V14.00,2013-11-28 15:21:00,
2013-11-28 10:30:00,28.3,19.8,30.44,SSW,213,0.0,7.0,70,0.00,,BKN055,0.00,VWS V14.00,2013-11-28 15:30:00,
2013-11-28 10:31:00,28.3,19.8,30.44,SSW,213,0.0,7.0,70,0.00,,BKN055,0.00,VWS V14.00,2013-11-28 15:31:00,
2013-11-28 10:40:00,29.2,20.0,30.43,SSE,153,4.0,6.0,68,0.00,,BKN055,0.00,VWS V14.00,2013-11-28 15:40:00,
2013-11-28 10:41:00,29.2,20.0,30.43,SSE,153,4.0,6.0,68,0.00,,BKN055,0.00,VWS V14.00,2013-11-28 15:41:00,
2013-11-28 10:50:00,29.9,22.0,30.43,SSW,205,0.0,5.0,72,0.00,,BKN055,0.00,VWS V14.00,2013-11-28 15:50:00,
2013-11-28 10:51:00,29.9,22.0,30.43,SSW,205,0.0,5.0,72,0.00,,BKN055,0.00,VWS V14.00,2013-11-28 15:51:00,
2013-11-28 11:00:00,30.4,20.4,30.43,SSE,158,0.0,6.0,66,0.00,,BKN055,0.00,VWS V14.00,2013-11-28 16:00:00,
2013-11-28 11:01:00,30.4,20.4,30.43,SSE,158,0.0,6.0,66,0.00,,BKN055,0.00,VWS V14.00,2013-11-28 16:01:00,
2013-11-28 11:10:00,31.0,22.0,30.42,SSW,195,2.0,6.0,69,0.00,,BKN055,0.00,VWS V14.00,2013-11-28 16:10:00,
2013-11-28 11:11:00,31.0,22.0,30.42,SSW,195,2.0,6.0,69,0.00,,BKN055,0.00,VWS V14.00,2013-11-28 16:11:00,
2013-11-28 11:20:00,31.4,21.4,30.41,SSW,209,2.0,12.0,66,0.00,,BKN055,0.00,VWS V14.00,2013-11-28 16:20:00,
2013-11-28 11:21:00,31.4,21.4,30.41,SSW,209,2.0,12.0,66,0.00,,BKN055,0.00,VWS V14.00,2013-11-28 16:21:00,
2013-11-28 11:30:00,31.6,21.6,30.41,SSW,213,3.0,14.0,66,0.00,,BKN055,0.00,VWS V14.00,2013-11-28 16:30:00,
2013-11-28 11:31:00,31.6,21.6,30.41,SSW,213,3.0,14.0,66,0.00,,BKN055,0.00,VWS V14.00,2013-11-28 16:31:00,
2013-11-28 11:40:00,32.2,21.8,30.40,South,191,5.0,6.0,65,0.00,,BKN055,0.00,VWS V14.00,2013-11-28 16:40:00,
2013-11-28 11:41:00,32.2,21.8,30.40,South,191,5.0,6.0,65,0.00,,BKN055,0.00,VWS V14.00,2013-11-28 16:41:00,
2013-11-28 11:50:00,32.0,21.6,30.39,South,175,1.0,6.0,65,0.00,,BKN055,0.00,VWS V14.00,2013-11-28 16:50:00,
2013-11-28 11:51:00,32.0,21.6,30.39,South,175,1.0,6.0,65,0.00,,BKN055,0.00,VWS V14.00,2013-11-28 16:51:00,
2013-11-28 12:00:00,32.4,22.0,30.38,SSE,153,2.0,6.0,65,0.00,,BKN055,0.00,VWS V14.00,2013-11-28 17:00:00,
2013-11-28 12:01:00,32.4,22.0,30.38,SSE,153,2.0,6.0,65,0.00,,BKN055,0.00,VWS V14.00,2013-11-28 17:01:00,
2013-11-28 12:10:00,33.2,23.8,30.38,SE,142,6.0,6.0,68,0.00,,BKN055,0.00,VWS V14.00,2013-11-28 17:10:00,
2013-11-28 12:11:00,33.2,23.8,30.38,SE,142,6.0,6.0,68,0.00,,BKN055,0.00,VWS V14.00,2013-11-28 17:11:00,
2013-11-28 12:20:00,33.5,23.7,30.37,SSE,155,2.0,9.0,67,0.00,,BKN055,0.00,VWS V14.00,2013-11-28 17:20:00,
2013-11-28 12:21:00,33.5,23.7,30.37,SSE,155,2.0,9.0,67,0.00,,BKN055,0.00,VWS V14.00,2013-11-28 17:21:00,
2013-11-28 12:30:00,34.0,23.5,30.36,SSE,161,3.0,5.0,65,0.00,,BKN055,0.00,VWS V14.00,2013-11-28 17:30:00,
2013-11-28 12:31:00,34.0,23.5,30.36,SSE,161,3.0,5.0,65,0.00,,BKN055,0.00,VWS V14.00,2013-11-28 17:31:00,
2013-11-28 12:40:00,33.8,22.9,30.36,SSE,153,4.0,7.0,64,0.00,,BKN055,0.00,VWS V14.00,2013-11-28 17:40:00,
2013-11-28 12:41:00,33.8,22.9,30.36,SSE,153,4.0,7.0,64,0.00,,BKN055,0.00,VWS V14.00,2013-11-28 17:41:00,
2013-11-28 12:50:00,34.0,22.4,30.35,WSW,250,1.0,7.0,62,0.00,,BKN055,0.00,VWS V14.00,2013-11-28 17:50:00,
2013-11-28 12:51:00,34.0,22.4,30.35,WSW,250,1.0,7.0,62,0.00,,BKN055,0.00,VWS V14.00,2013-11-28 17:51:00,
2013-11-28 13:00:00,34.0,22.0,30.34,SSE,147,4.0,7.0,61,0.00,,BKN055,0.00,VWS V14.00,2013-11-28 18:00:00,
2013-11-28 13:01:00,34.0,22.0,30.34,SSE,147,4.0,7.0,61,0.00,,BKN055,0.00,VWS V14.00,2013-11-28 18:01:00,
2013-11-28 13:10:00,34.4,22.7,30.33,South,169,2.0,5.0,62,0.00,,BKN055,0.00,VWS V14.00,2013-11-28 18:10:00,
2013-11-28 13:11:00,34.4,22.7,30.33,South,169,2.0,5.0,62,0.00,,BKN055,0.00,VWS V14.00,2013-11-28 18:11:00,
2013-11-28 13:20:00,35.3,23.6,30.33,SSE,165,3.0,5.0,62,0.00,,BKN055,0.00,VWS V14.00,2013-11-28 18:20:00,
2013-11-28 13:21:00,35.3,23.6,30.33,SSE,165,3.0,5.0,62,0.00,,BKN055,0.00,VWS V14.00,2013-11-28 18:21:00,
2013-11-28 13:30:00,35.5,23.8,30.32,South,169,5.0,7.0,62,0.00,,BKN055,0.00,VWS V14.00,2013-11-28 18:30:00,
2013-11-28 13:31:00,35.5,23.8,30.32,South,169,5.0,7.0,62,0.00,,BKN055,0.00,VWS V14.00,2013-11-28 18:31:00,
2013-11-28 13:40:00,36.0,24.3,30.32,SE,146,2.0,7.0,62,0.00,,BKN055,0.00,VWS V14.00,2013-11-28 18:40:00,
2013-11-28 13:41:00,36.0,24.3,30.32,SE,146,2.0,7.0,62,0.00,,BKN055,0.00,VWS V14.00,2013-11-28 18:41:00,
2013-11-28 13:50:00,36.4,24.2,30.32,SSE,148,4.0,6.0,61,0.00,,BKN055,0.00,VWS V14.00,2013-11-28 18:50:00,
2013-11-28 13:51:00,36.4,24.2,30.32,SSE,148,4.0,6.0,61,0.00,,BKN055,0.00,VWS V14.00,2013-11-28 18:51:00,
2013-11-28 14:00:00,36.5,25.1,30.32,South,175,2.0,6.0,63,0.00,,BKN055,0.00,VWS V14.00,2013-11-28 19:00:00,
2013-11-28 14:01:00,36.5,25.1,30.32,South,175,2.0,6.0,63,0.00,,BKN055,0.00,VWS V14.00,2013-11-28 19:01:00,
2013-11-28 14:10:00,36.6,24.4,30.32,SSW,203,2.0,11.0,61,0.00,,BKN055,0.00,VWS V14.00,2013-11-28 19:10:00,
2013-11-28 14:11:00,36.6,24.4,30.32,SSW,203,2.0,11.0,61,0.00,,BKN055,0.00,VWS V14.00,2013-11-28 19:11:00,
2013-11-28 14:20:00,36.6,24.4,30.32,South,179,3.0,7.0,61,0.00,,BKN055,0.00,VWS V14.00,2013-11-28 19:20:00,
2013-11-28 14:21:00,36.6,24.4,30.32,South,179,3.0,7.0,61,0.00,,BKN055,0.00,VWS V14.00,2013-11-28 19:21:00,
2013-11-28 14:30:00,36.7,24.9,30.31,SSW,205,3.0,7.0,62,0.00,,BKN055,0.00,VWS V14.00,2013-11-28 19:30:00,
2013-11-28 14:31:00,36.7,24.9,30.31,SSW,205,3.0,7.0,62,0.00,,BKN055,0.00,VWS V14.00,2013-11-28 19:31:00,
2013-11-28 14:40:00,37.1,24.1,30.31,SSE,167,0.0,5.0,59,0.00,,BKN055,0.00,VWS V14.00,2013-11-28 19:40:00,
2013-11-28 14:41:00,37.1,24.1,30.31,SSE,167,0.0,5.0,59,0.00,,BKN055,0.00,VWS V14.00,2013-11-28 19:41:00,
2013-11-28 14:50:00,37.2,24.2,30.31,SSE,167,2.0,9.0,59,0.00,,BKN055,0.00,VWS V14.00,2013-11-28 19:50:00,
2013-11-28 14:51:00,37.2,24.2,30.31,SSE,167,2.0,9.0,59,0.00,,BKN055,0.00,VWS V14.00,2013-11-28 19:51:00,
2013-11-28 15:00:00,37.5,25.3,30.32,South,175,0.0,8.0,61,0.00,,BKN055,0.00,VWS V14.00,2013-11-28 20:00:00,
2013-11-28 15:01:00,37.5,25.3,30.32,South,175,0.0,8.0,61,0.00,,BKN055,0.00,VWS V14.00,2013-11-28 20:01:00,
2013-11-28 15:10:00,37.7,24.3,30.32,WNW,294,4.0,9.0,58,0.00,,BKN055,0.00,VWS V14.00,2013-11-28 20:10:00,
2013-11-28 15:11:00,37.7,24.3,30.32,WNW,294,4.0,9.0,58,0.00,,BKN055,0.00,VWS V14.00,2013-11-28 20:11:00,
2013-11-28 15:20:00,37.8,24.0,30.32,SE,142,2.0,7.0,57,0.00,,BKN055,0.00,VWS V14.00,2013-11-28 20:20:00,
2013-11-28 15:21:00,37.8,24.0,30.32,SE,142,2.0,7.0,57,0.00,,BKN055,0.00,VWS V14.00,2013-11-28 20:21:00,
2013-11-28 15:30:00,37.9,24.0,30.33,WSW,250,0.0,9.0,57,0.00,,BKN055,0.00,VWS V14.00,2013-11-28 20:30:00,
2013-11-28 15:31:00,37.9,24.0,30.33,WSW,250,0.0,9.0,57,0.00,,BKN055,0.00,VWS V14.00,2013-11-28 20:31:00,
2013-11-28 15:40:00,37.9,23.6,30.33,SW,221,4.0,7.0,56,0.00,,BKN055,0.00,VWS V14.00,2013-11-28 20:40:00,
2013-11-28 15:41:00,37.9,23.6,30.33,SW,221,4.0,7.0,56,0.00,,BKN055,0.00,VWS V14.00,2013-11-28 20:41:00,
2013-11-28 15:50:00,38.1,25.5,30.33,SW,215,4.0,8.0,60,0.00,,BKN055,0.00,VWS V14.00,2013-11-28 20:50:00,
2013-11-28 15:51:00,38.1,25.5,30.33,SW,215,4.0,8.0,60,0.00,,BKN055,0.00,VWS V14.00,2013-11-28 20:51:00,
2013-11-28 16:00:00,38.0,25.4,30.32,South,172,2.0,6.0,60,0.00,,BKN055,0.00,VWS V14.00,2013-11-28 21:00:00,
2013-11-28 16:01:00,38.0,25.4,30.32,South,172,2.0,6.0,60,0.00,,BKN055,0.00,VWS V14.00,2013-11-28 21:01:00,
2013-11-28 16:10:00,37.7,24.7,30.32,SW,234,2.0,6.0,59,0.00,,BKN055,0.00,VWS V14.00,2013-11-28 21:10:00,
2013-11-28 16:11:00,37.7,24.7,30.32,SW,234,2.0,6.0,59,0.00,,BKN055,0.00,VWS V14.00,2013-11-28 21:11:00,
2013-11-28 16:20:00,37.5,24.9,30.32,SW,223,0.0,5.0,60,0.00,,BKN055,0.00,VWS V14.00,2013-11-28 21:20:00,
2013-11-28 16:21:00,37.5,24.9,30.32,SW,223,0.0,5.0,60,0.00,,BKN055,0.00,VWS V14.00,2013-11-28 21:21:00,
2013-11-28 16:30:00,37.3,25.5,30.32,SSW,202,0.0,3.0,62,0.00,,BKN055,0.00,VWS V14.00,2013-11-28 21:30:00,
2013-11-28 16:31:00,37.3,25.5,30.32,SSW,202,0.0,3.0,62,0.00,,BKN055,0.00,VWS V14.00,2013-11-28 21:31:00,
2013-11-28 16:40:00,37.1,24.5,30.32,SSW,197,0.0,6.0,60,0.00,,BKN055,0.00,VWS V14.00,2013-11-28 21:40:00,
2013-11-28 16:41:00,37.1,24.5,30.32,SSW,197,0.0,6.0,60,0.00,,BKN055,0.00,VWS V14.00,2013-11-28 21:41:00,
2013-11-28 16:50:00,37.0,24.0,30.32,SSW,194,0.0,1.0,59,0.00,,BKN055,0.00,VWS V14.00,2013-11-28 21:50:00,
2013-11-28 16:51:00,37.0,24.0,30.32,SSW,194,0.0,1.0,59,0.00,,BKN055,0.00,VWS V14.00,2013-11-28 21:51:00,
2013-11-28 17:00:00,36.5,24.7,30.32,South,172,0.0,3.0,62,0.00,,BKN055,0.00,VWS V14.00,2013-11-28 22:00:00,
2013-11-28 17:01:00,36.5,24.7,30.32,South,172,0.0,3.0,62,0.00,,BKN055,0.00,VWS V14.00,2013-11-28 22:01:00,
2013-11-28 17:10:00,35.9,23.4,30.33,SW,222,3.0,5.0,60,0.00,,BKN055,0.00,VWS V14.00,2013-11-28 22:10:00,
2013-11-28 17:11:00,35.9,23.4,30.33,SW,222,3.0,5.0,60,0.00,,BKN055,0.00,VWS V14.00,2013-11-28 22:11:00,
2013-11-28 17:20:00,35.2,23.1,30.34,WSW,241,0.0,3.0,61,0.00,,BKN055,0.00,VWS V14.00,2013-11-28 22:20:00,
2013-11-28 17:21:00,35.2,23.1,30.34,WSW,241,0.0,3.0,61,0.00,,BKN055,0.00,VWS V14.00,2013-11-28 22:21:00,
2013-11-28 17:30:00,34.4,23.1,30.34,WSW,241,0.0,0.0,63,0.00,,BKN055,0.00,VWS V14.00,2013-11-28 22:30:00,
2013-11-28 17:31:00,34.4,23.1,30.34,WSW,241,0.0,0.0,63,0.00,,BKN055,0.00,VWS V14.00,2013-11-28 22:31:00,
2013-11-28 17:40:00,33.0,22.5,30.35,WSW,241,0.0,0.0,65,0.00,,BKN055,0.00,VWS V14.00,2013-11-28 22:40:00,
2013-11-28 17:41:00,33.0,22.5,30.35,WSW,241,0.0,0.0,65,0.00,,BKN055,0.00,VWS V14.00,2013-11-28 22:41:00,
2013-11-28 17:50:00,31.8,21.8,30.36,WSW,241,0.0,0.0,66,0.00,,BKN055,0.00,VWS V14.00,2013-11-28 22:50:00,
2013-11-28 17:51:00,31.8,21.8,30.36,WSW,241,0.0,0.0,66,0.00,,BKN055,0.00,VWS V14.00,2013-11-28 22:51:00,
2013-11-28 18:00:00,31.5,21.8,30.36,WSW,241,0.0,0.0,67,0.00,,BKN055,0.00,VWS V14.00,2013-11-28 23:00:00,
2013-11-28 18:01:00,31.5,21.8,30.36,WSW,241,0.0,0.0,67,0.00,,BKN055,0.00,VWS V14.00,2013-11-28 23:01:00,
2013-11-28 18:10:00,30.2,21.9,30.37,WSW,242,0.0,0.0,71,0.00,,BKN055,0.00,VWS V14.00,2013-11-28 23:10:00,
2013-11-28 18:11:00,30.2,21.9,30.37,WSW,242,0.0,0.0,71,0.00,,BKN055,0.00,VWS V14.00,2013-11-28 23:11:00,
2013-11-28 18:20:00,29.1,21.9,30.37,WSW,243,0.0,0.0,74,0.00,,BKN055,0.00,VWS V14.00,2013-11-28 23:20:00,
2013-11-28 18:21:00,29.1,21.9,30.37,WSW,243,0.0,0.0,74,0.00,,BKN055,0.00,VWS V14.00,2013-11-28 23:21:00,
2013-11-28 18:30:00,28.0,21.7,30.38,WSW,244,0.0,0.0,77,0.00,,BKN055,0.00,VWS V14.00,2013-11-28 23:30:00,
2013-11-28 18:31:00,28.0,21.7,30.38,WSW,244,0.0,0.0,77,0.00,,BKN055,0.00,VWS V14.00,2013-11-28 23:31:00,
2013-11-28 18:40:00,27.4,21.5,30.38,WSW,244,0.0,0.0,78,0.00,,BKN055,0.00,VWS V14.00,2013-11-28 23:40:00,
2013-11-28 18:41:00,27.4,21.5,30.38,WSW,244,0.0,0.0,78,0.00,,BKN055,0.00,VWS V14.00,2013-11-28 23:41:00,
2013-11-28 18:50:00,27.5,21.5,30.39,WSW,246,0.0,0.0,78,0.00,,BKN055,0.00,VWS V14.00,2013-11-28 23:50:00,
2013-11-28 18:51:00,27.5,21.5,30.39,WSW,246,0.0,0.0,78,0.00,,BKN055,0.00,VWS V14.00,2013-11-28 23:51:00,
2013-11-28 19:00:00,27.2,21.9,30.39,WSW,245,0.0,0.0,80,0.00,,BKN055,0.00,VWS V14.00,2013-11-29 00:00:00,
2013-11-28 19:01:00,27.2,21.9,30.39,WSW,245,0.0,0.0,80,0.00,,BKN055,0.00,VWS V14.00,2013-11-29 00:01:00,
2013-11-28 19:10:00,26.8,21.5,30.40,WSW,246,0.0,0.0,80,0.00,,BKN055,0.00,VWS V14.00,2013-11-29 00:10:00,
2013-11-28 19:11:00,26.8,21.5,30.40,WSW,246,0.0,0.0,80,0.00,,BKN055,0.00,VWS V14.00,2013-11-29 00:11:00,
2013-11-28 19:20:00,26.7,21.4,30.40,WSW,246,0.0,0.0,80,0.00,,BKN055,0.00,VWS V14.00,2013-11-29 00:20:00,
2013-11-28 19:21:00,26.7,21.4,30.40,WSW,246,0.0,0.0,80,0.00,,BKN055,0.00,VWS V14.00,2013-11-29 00:21:00,
2013-11-28 19:30:00,26.4,21.4,30.40,WSW,246,0.0,0.0,81,0.00,,BKN055,0.00,VWS V14.00,2013-11-29 00:30:00,
2013-11-28 19:31:00,26.4,21.4,30.40,WSW,246,0.0,0.0,81,0.00,,BKN055,0.00,VWS V14.00,2013-11-29 00:31:00,
2013-11-28 19:40:00,26.1,21.1,30.41,WSW,246,0.0,0.0,81,0.00,,BKN055,0.00,VWS V14.00,2013-11-29 00:40:00,
2013-11-28 19:41:00,26.1,21.1,30.41,WSW,246,0.0,0.0,81,0.00,,BKN055,0.00,VWS V14.00,2013-11-29 00:41:00,
2013-11-28 19:50:00,25.7,21.0,30.41,WSW,247,0.0,0.0,82,0.00,,BKN055,0.00,VWS V14.00,2013-11-29 00:50:00,
2013-11-28 19:51:00,25.7,21.0,30.41,WSW,247,0.0,0.0,82,0.00,,BKN055,0.00,VWS V14.00,2013-11-29 00:51:00,
2013-11-28 20:00:00,25.5,20.8,30.42,WSW,248,0.0,0.0,82,0.00,,BKN055,0.00,VWS V14.00,2013-11-29 01:00:00,
2013-11-28 20:01:00,25.5,20.8,30.42,WSW,248,0.0,0.0,82,0.00,,BKN055,0.00,VWS V14.00,2013-11-29 01:01:00,
2013-11-28 20:10:00,24.9,20.8,30.42,WSW,248,0.0,0.0,84,0.00,,BKN055,0.00,VWS V14.00,2013-11-29 01:10:00,
2013-11-28 20:11:00,24.9,20.8,30.42,WSW,248,0.0,0.0,84,0.00,,BKN055,0.00,VWS V14.00,2013-11-29 01:11:00,
2013-11-28 20:20:00,24.6,20.5,30.42,West,263,0.0,0.0,84,0.00,,BKN055,0.00,VWS V14.00,2013-11-29 01:20:00,
2013-11-28 20:21:00,24.6,20.5,30.42,West,263,0.0,0.0,84,0.00,,BKN055,0.00,VWS V14.00,2013-11-29 01:21:00,
2013-11-28 20:30:00,24.3,20.5,30.43,NNW,331,0.0,3.0,85,0.00,,BKN055,0.00,VWS V14.00,2013-11-29 01:30:00,
2013-11-28 20:31:00,24.3,20.5,30.43,NNW,331,0.0,3.0,85,0.00,,BKN055,0.00,VWS V14.00,2013-11-29 01:31:00,
2013-11-28 20:40:00,24.3,20.5,30.43,NNW,330,0.0,0.0,85,0.00,,BKN055,0.00,VWS V14.00,2013-11-29 01:40:00,
2013-11-28 20:41:00,24.3,20.5,30.43,NNW,330,0.0,0.0,85,0.00,,BKN055,0.00,VWS V14.00,2013-11-29 01:41:00,
2013-11-28 20:50:00,24.1,20.2,30.43,NNW,330,0.0,0.0,85,0.00,,BKN055,0.00,VWS V14.00,2013-11-29 01:50:00,
2013-11-28 20:51:00,24.1,20.2,30.43,NNW,330,0.0,0.0,85,0.00,,BKN055,0.00,VWS V14.00,2013-11-29 01:51:00,
2013-11-28 21:00:00,23.9,20.3,30.43,NNW,331,0.0,0.0,86,0.00,,BKN055,0.00,VWS V14.00,2013-11-29 02:00:00,
2013-11-28 21:01:00,23.9,20.3,30.43,NNW,331,0.0,0.0,86,0.00,,BKN055,0.00,VWS V14.00,2013-11-29 02:01:00,
2013-11-28 21:10:00,23.8,20.0,30.43,NNW,330,0.0,0.0,85,0.00,,BKN055,0.00,VWS V14.00,2013-11-29 02:10:00,
2013-11-28 21:11:00,23.8,20.0,30.43,NNW,330,0.0,0.0,85,0.00,,BKN055,0.00,VWS V14.00,2013-11-29 02:11:00,
2013-11-28 21:20:00,23.4,19.8,30.44,NNW,331,0.0,0.0,86,0.00,,BKN055,0.00,VWS V14.00,2013-11-29 02:20:00,
2013-11-28 21:21:00,23.4,19.8,30.44,NNW,331,0.0,0.0,86,0.00,,BKN055,0.00,VWS V14.00,2013-11-29 02:21:00,
2013-11-28 21:30:00,23.1,19.5,30.44,NNW,330,0.0,0.0,86,0.00,,BKN055,0.00,VWS V14.00,2013-11-29 02:30:00,
2013-11-28 21:31:00,23.1,19.5,30.44,NNW,330,0.0,0.0,86,0.00,,BKN055,0.00,VWS V14.00,2013-11-29 02:31:00,
2013-11-28 21:40:00,22.9,19.6,30.44,NNW,331,0.0,0.0,87,0.00,,BKN055,0.00,VWS V14.00,2013-11-29 02:40:00,
2013-11-28 21:41:00,22.9,19.6,30.44,NNW,331,0.0,0.0,87,0.00,,BKN055,0.00,VWS V14.00,2013-11-29 02:41:00,
2013-11-28 21:50:00,22.6,19.3,30.45,NNW,331,0.0,0.0,87,0.00,,BKN055,0.00,VWS V14.00,2013-11-29 02:50:00,
2013-11-28 21:51:00,22.6,19.3,30.45,NNW,331,0.0,0.0,87,0.00,,BKN055,0.00,VWS V14.00,2013-11-29 02:51:00,
2013-11-28 22:00:00,22.7,19.4,30.45,NNW,331,0.0,0.0,87,0.00,,BKN055,0.00,VWS V14.00,2013-11-29 03:00:00,
2013-11-28 22:01:00,22.7,19.4,30.45,NNW,331,0.0,0.0,87,0.00,,BKN055,0.00,VWS V14.00,2013-11-29 03:01:00,
2013-11-28 22:10:00,22.6,19.6,30.45,NNW,330,0.0,0.0,88,0.00,,BKN055,0.00,VWS V14.00,2013-11-29 03:10:00,
2013-11-28 22:11:00,22.6,19.6,30.45,NNW,330,0.0,0.0,88,0.00,,BKN055,0.00,VWS V14.00,2013-11-29 03:11:00,
2013-11-28 22:20:00,22.1,19.1,30.45,NNW,331,0.0,0.0,88,0.00,,BKN055,0.00,VWS V14.00,2013-11-29 03:20:00,
2013-11-28 22:21:00,22.1,19.1,30.45,NNW,331,0.0,0.0,88,0.00,,BKN055,0.00,VWS V14.00,2013-11-29 03:21:00,
2013-11-28 22:30:00,21.9,18.9,30.45,NNW,331,0.0,0.0,88,0.00,,BKN055,0.00,VWS V14.00,2013-11-29 03:30:00,
2013-11-28 22:31:00,21.9,18.9,30.45,NNW,331,0.0,0.0,88,0.00,,BKN055,0.00,VWS V14.00,2013-11-29 03:31:00,
2013-11-28 22:40:00,21.7,19.0,30.45,NNW,331,0.0,0.0,89,0.00,,BKN055,0.00,VWS V14.00,2013-11-29 03:40:00,
2013-11-28 22:41:00,21.7,19.0,30.45,NNW,331,0.0,0.0,89,0.00,,BKN055,0.00,VWS V14.00,2013-11-29 03:41:00,
2013-11-28 22:50:00,21.6,18.9,30.45,NNW,330,0.0,0.0,89,0.00,,BKN055,0.00,VWS V14.00,2013-11-29 03:50:00,
2013-11-28 22:51:00,21.6,18.9,30.45,NNW,330,0.0,0.0,89,0.00,,BKN055,0.00,VWS V14.00,2013-11-29 03:51:00,
2013-11-28 23:00:00,21.2,18.5,30.46,NNW,330,0.0,2.0,89,0.00,,BKN055,0.00,VWS V14.00,2013-11-29 04:00:00,
2013-11-28 23:01:00,21.2,18.5,30.46,NNW,330,0.0,2.0,89,0.00,,BKN055,0.00,VWS V14.00,2013-11-29 04:01:00,
2013-11-28 23:10:00,21.1,18.6,30.46,NNW,330,0.0,3.0,90,0.00,,BKN055,0.00,VWS V14.00,2013-11-29 04:10:00,
2013-11-28 23:11:00,21.1,18.6,30.46,NNW,330,0.0,3.0,90,0.00,,BKN055,0.00,VWS V14.00,2013-11-29 04:11:00,
2013-11-28 23:20:00,20.9,18.4,30.46,NNW,330,0.0,0.0,90,0.00,,BKN055,0.00,VWS V14.00,2013-11-29 04:20:00,
2013-11-28 23:21:00,20.9,18.4,30.46,NNW,330,0.0,0.0,90,0.00,,BKN055,0.00,VWS V14.00,2013-11-29 04:21:00,
2013-11-28 23:30:00,20.7,18.2,30.47,NNW,330,0.0,0.0,90,0.00,,BKN055,0.00,VWS V14.00,2013-11-29 04:30:00,
2013-11-28 23:31:00,20.7,18.2,30.47,NNW,330,0.0,0.0,90,0.00,,BKN055,0.00,VWS V14.00,2013-11-29 04:31:00,
2013-11-28 23:40:00,20.4,17.9,30.47,NNW,330,0.0,0.0,90,0.00,,BKN055,0.00,VWS V14.00,2013-11-29 04:40:00,
2013-11-28 23:41:00,20.4,17.9,30.47,NNW,330,0.0,0.0,90,0.00,,BKN055,0.00,VWS V14.00,2013-11-29 04:41:00,
2013-11-28 23:50:00,20.3,17.8,30.48,NNW,331,3.0,3.0,90,0.00,,BKN055,0.00,VWS V14.00,2013-11-29 04:50:00,
2013-11-28 23:51:00,20.3,17.8,30.48,NNW,331,3.0,3.0,90,0.00,,BKN055,0.00,VWS V14.00,2013-11-29 04:51:00,